sensor_id;sensor_type;location;lat;lon;timestamp;pressure;altitude;pressure_sealevel;temperature;humidity
41202;BME280;26936;50.524;8.684;2023-04-29T00:00:20;98976.41;;;11.14;100.00
41202;BME280;26936;50.524;8.684;2023-04-29T00:02:45;98970.16;;;11.19;100.00
41202;BME280;26936;50.524;8.684;2023-04-29T00:05:10;98970.00;;;11.23;100.00
41202;BME280;26936;50.524;8.684;2023-04-29T00:07:35;98964.53;;;11.28;100.00
41202;BME280;26936;50.524;8.684;2023-04-29T00:10:01;98967.81;;;11.27;100.00
41202;BME280;26936;50.524;8.684;2023-04-29T00:12:26;98969.84;;;11.26;100.00
41202;BME280;26936;50.524;8.684;2023-04-29T00:14:54;98975.94;;;11.25;100.00
41202;BME280;26936;50.524;8.684;2023-04-29T00:17:19;98971.09;;;11.25;100.00
41202;BME280;26936;50.524;8.684;2023-04-29T00:19:44;98971.44;;;11.27;100.00
41202;BME280;26936;50.524;8.684;2023-04-29T00:22:10;98971.44;;;11.27;100.00
41202;BME280;26936;50.524;8.684;2023-04-29T00:24:35;98974.53;;;11.29;100.00
41202;BME280;26936;50.524;8.684;2023-04-29T00:27:00;98975.00;;;11.28;100.00
41202;BME280;26936;50.524;8.684;2023-04-29T00:29:26;98970.50;;;11.30;100.00
41202;BME280;26936;50.524;8.684;2023-04-29T00:31:52;98978.81;;;11.34;100.00
41202;BME280;26936;50.524;8.684;2023-04-29T00:34:17;98978.00;;;11.33;100.00
41202;BME280;26936;50.524;8.684;2023-04-29T00:36:42;98976.28;;;11.36;100.00
41202;BME280;26936;50.524;8.684;2023-04-29T00:39:08;98983.19;;;11.35;100.00
41202;BME280;26936;50.524;8.684;2023-04-29T00:41:33;98982.38;;;11.34;100.00
41202;BME280;26936;50.524;8.684;2023-04-29T00:43:58;98969.56;;;11.33;100.00
41202;BME280;26936;50.524;8.684;2023-04-29T00:46:24;98975.66;;;11.32;100.00
41202;BME280;26936;50.524;8.684;2023-04-29T00:48:49;98984.91;;;11.32;100.00
41202;BME280;26936;50.524;8.684;2023-04-29T00:51:15;98977.53;;;11.35;100.00
41202;BME280;26936;50.524;8.684;2023-04-29T00:53:41;98986.00;;;11.35;100.00
41202;BME280;26936;50.524;8.684;2023-04-29T00:56:07;98987.09;;;11.37;100.00
41202;BME280;26936;50.524;8.684;2023-04-29T00:58:32;98981.94;;;11.45;100.00
41202;BME280;26936;50.524;8.684;2023-04-29T01:01:02;98982.88;;;11.42;100.00
41202;BME280;26936;50.524;8.684;2023-04-29T01:03:29;98986.00;;;11.44;100.00
41202;BME280;26936;50.524;8.684;2023-04-29T01:11:15;98982.88;;;11.42;100.00
41202;BME280;26936;50.524;8.684;2023-04-29T01:13:49;98986.19;;;11.40;100.00
41202;BME280;26936;50.524;8.684;2023-04-29T01:16:22;98992.44;;;11.35;100.00
41202;BME280;26936;50.524;8.684;2023-04-29T01:18:56;98996.19;;;11.32;100.00
41202;BME280;26936;50.524;8.684;2023-04-29T01:21:24;98997.88;;;11.30;100.00
41202;BME280;26936;50.524;8.684;2023-04-29T01:23:49;98996.34;;;11.29;100.00
41202;BME280;26936;50.524;8.684;2023-04-29T01:26:23;98996.63;;;11.31;100.00
41202;BME280;26936;50.524;8.684;2023-04-29T01:28:56;99002.91;;;11.35;100.00
41202;BME280;26936;50.524;8.684;2023-04-29T01:31:44;98997.13;;;11.38;100.00
41202;BME280;26936;50.524;8.684;2023-04-29T01:34:28;99003.38;;;11.42;100.00
41202;BME280;26936;50.524;8.684;2023-04-29T01:36:58;98995.25;;;11.44;100.00
41202;BME280;26936;50.524;8.684;2023-04-29T01:45:10;98994.16;;;11.42;100.00
41202;BME280;26936;50.524;8.684;2023-04-29T01:47:37;98994.78;;;11.37;100.00
41202;BME280;26936;50.524;8.684;2023-04-29T01:50:03;98994.91;;;11.33;100.00
41202;BME280;26936;50.524;8.684;2023-04-29T01:52:28;98981.16;;;11.35;100.00
41202;BME280;26936;50.524;8.684;2023-04-29T01:54:54;98985.06;;;11.38;100.00
41202;BME280;26936;50.524;8.684;2023-04-29T01:57:19;98984.91;;;11.41;100.00
41202;BME280;26936;50.524;8.684;2023-04-29T01:59:44;98981.16;;;11.44;100.00
41202;BME280;26936;50.524;8.684;2023-04-29T02:02:10;98990.72;;;11.47;100.00
41202;BME280;26936;50.524;8.684;2023-04-29T02:04:35;98996.84;;;11.45;100.00
41202;BME280;26936;50.524;8.684;2023-04-29T02:07:00;98991.66;;;11.53;100.00
41202;BME280;26936;50.524;8.684;2023-04-29T02:09:26;98990.72;;;11.56;100.00
41202;BME280;26936;50.524;8.684;2023-04-29T02:11:51;99002.66;;;11.60;100.00
41202;BME280;26936;50.524;8.684;2023-04-29T02:14:17;99003.13;;;11.58;100.00
41202;BME280;26936;50.524;8.684;2023-04-29T02:16:45;98998.72;;;11.57;100.00
41202;BME280;26936;50.524;8.684;2023-04-29T02:19:10;99007.16;;;11.57;100.00
41202;BME280;26936;50.524;8.684;2023-04-29T02:21:36;99004.66;;;11.59;100.00
41202;BME280;26936;50.524;8.684;2023-04-29T02:24:04;99008.47;;;11.65;100.00
41202;BME280;26936;50.524;8.684;2023-04-29T02:26:29;99013.78;;;11.63;100.00
41202;BME280;26936;50.524;8.684;2023-04-29T02:28:54;99005.00;;;11.61;100.00
41202;BME280;26936;50.524;8.684;2023-04-29T02:31:21;99017.97;;;11.59;100.00
41202;BME280;26936;50.524;8.684;2023-04-29T02:33:46;99014.09;;;11.65;100.00
41202;BME280;26936;50.524;8.684;2023-04-29T02:36:11;99020.22;;;11.64;100.00
41202;BME280;26936;50.524;8.684;2023-04-29T02:38:37;99019.13;;;11.70;100.00
41202;BME280;26936;50.524;8.684;2023-04-29T02:41:02;99030.56;;;11.67;100.00
41202;BME280;26936;50.524;8.684;2023-04-29T02:43:27;99034.03;;;11.71;100.00
41202;BME280;26936;50.524;8.684;2023-04-29T02:45:55;99035.72;;;11.68;100.00
41202;BME280;26936;50.524;8.684;2023-04-29T02:48:20;99031.00;;;11.56;100.00
41202;BME280;26936;50.524;8.684;2023-04-29T02:50:45;99036.97;;;11.58;100.00
41202;BME280;26936;50.524;8.684;2023-04-29T02:53:10;99040.41;;;11.62;100.00
41202;BME280;26936;50.524;8.684;2023-04-29T02:55:36;99042.31;;;11.65;100.00
41202;BME280;26936;50.524;8.684;2023-04-29T02:58:01;99041.97;;;11.63;100.00
41202;BME280;26936;50.524;8.684;2023-04-29T03:00:27;99042.63;;;11.67;100.00
41202;BME280;26936;50.524;8.684;2023-04-29T03:02:53;99048.75;;;11.66;100.00
41202;BME280;26936;50.524;8.684;2023-04-29T03:05:18;99052.03;;;11.73;100.00
41202;BME280;26936;50.524;8.684;2023-04-29T03:07:43;99050.78;;;11.65;100.00
41202;BME280;26936;50.524;8.684;2023-04-29T03:10:09;99053.41;;;11.60;100.00
41202;BME280;26936;50.524;8.684;2023-04-29T03:12:34;99057.47;;;11.50;100.00
41202;BME280;26936;50.524;8.684;2023-04-29T03:14:59;99058.41;;;11.56;100.00
41202;BME280;26936;50.524;8.684;2023-04-29T03:17:24;99061.84;;;11.51;100.00
41202;BME280;26936;50.524;8.684;2023-04-29T03:19:50;99067.63;;;11.47;100.00
41202;BME280;26936;50.524;8.684;2023-04-29T03:22:17;99064.66;;;11.51;100.00
41202;BME280;26936;50.524;8.684;2023-04-29T03:24:42;99060.91;;;11.45;100.00
41202;BME280;26936;50.524;8.684;2023-04-29T03:27:08;99064.19;;;11.43;100.00
41202;BME280;26936;50.524;8.684;2023-04-29T03:29:34;99063.06;;;11.41;100.00
41202;BME280;26936;50.524;8.684;2023-04-29T03:31:59;99059.44;;;11.31;100.00
41202;BME280;26936;50.524;8.684;2023-04-29T03:34:24;99059.44;;;11.31;100.00
41202;BME280;26936;50.524;8.684;2023-04-29T03:36:50;99062.53;;;11.24;100.00
41202;BME280;26936;50.524;8.684;2023-04-29T03:39:16;99061.47;;;11.22;100.00
41202;BME280;26936;50.524;8.684;2023-04-29T03:41:41;99062.19;;;11.13;100.00
41202;BME280;26936;50.524;8.684;2023-04-29T03:44:06;99068.50;;;11.26;100.00
41202;BME280;26936;50.524;8.684;2023-04-29T03:46:32;99066.75;;;11.20;100.00
41202;BME280;26936;50.524;8.684;2023-04-29T03:48:57;99069.91;;;11.22;100.00
41202;BME280;26936;50.524;8.684;2023-04-29T03:51:23;99061.13;;;11.20;100.00
41202;BME280;26936;50.524;8.684;2023-04-29T03:53:49;99066.91;;;11.16;100.00
41202;BME280;26936;50.524;8.684;2023-04-29T03:56:15;99070.06;;;11.18;100.00
41202;BME280;26936;50.524;8.684;2023-04-29T03:58:41;99073.19;;;11.20;100.00
41202;BME280;26936;50.524;8.684;2023-04-29T04:01:06;99078.97;;;11.17;100.00
41202;BME280;26936;50.524;8.684;2023-04-29T04:03:31;99082.72;;;11.14;100.00
41202;BME280;26936;50.524;8.684;2023-04-29T04:05:57;99079.91;;;11.23;100.00
41202;BME280;26936;50.524;8.684;2023-04-29T04:08:22;99082.59;;;11.26;100.00
41202;BME280;26936;50.524;8.684;2023-04-29T04:10:47;99077.56;;;11.21;100.00
41202;BME280;26936;50.524;8.684;2023-04-29T04:13:12;99086.63;;;11.16;100.00
41202;BME280;26936;50.524;8.684;2023-04-29T04:15:38;99085.41;;;11.17;100.00
41202;BME280;26936;50.524;8.684;2023-04-29T04:18:03;99090.56;;;11.19;100.00
41202;BME280;26936;50.524;8.684;2023-04-29T04:20:29;99093.56;;;11.24;100.00
41202;BME280;26936;50.524;8.684;2023-04-29T04:22:54;99086.63;;;11.16;100.00
41202;BME280;26936;50.524;8.684;2023-04-29T04:25:19;99097.13;;;11.16;100.00
41202;BME280;26936;50.524;8.684;2023-04-29T04:27:45;99096.06;;;11.22;100.00
41202;BME280;26936;50.524;8.684;2023-04-29T04:30:11;99100.72;;;11.16;100.00
41202;BME280;26936;50.524;8.684;2023-04-29T04:32:36;99105.91;;;11.18;100.00
41202;BME280;26936;50.524;8.684;2023-04-29T04:35:03;99104.19;;;11.20;100.00
41202;BME280;26936;50.524;8.684;2023-04-29T04:37:29;99113.91;;;11.19;100.00
41202;BME280;26936;50.524;8.684;2023-04-29T04:39:54;99107.50;;;11.19;100.00
41202;BME280;26936;50.524;8.684;2023-04-29T04:42:21;99115.94;;;11.19;100.00
41202;BME280;26936;50.524;8.684;2023-04-29T04:44:46;99115.28;;;11.15;100.00
41202;BME280;26936;50.524;8.684;2023-04-29T04:47:11;99132.06;;;11.18;100.00
41202;BME280;26936;50.524;8.684;2023-04-29T04:49:37;99126.75;;;11.20;100.00
41202;BME280;26936;50.524;8.684;2023-04-29T04:52:02;99139.28;;;11.19;100.00
41202;BME280;26936;50.524;8.684;2023-04-29T04:54:28;99138.50;;;11.19;100.00
41202;BME280;26936;50.524;8.684;2023-04-29T04:56:53;99146.47;;;11.20;100.00
41202;BME280;26936;50.524;8.684;2023-04-29T04:59:18;99143.06;;;11.25;100.00
41202;BME280;26936;50.524;8.684;2023-04-29T05:01:43;99142.25;;;11.25;100.00
41202;BME280;26936;50.524;8.684;2023-04-29T05:04:09;99136.97;;;11.27;100.00
41202;BME280;26936;50.524;8.684;2023-04-29T05:06:34;99144.63;;;11.26;100.00
41202;BME280;26936;50.524;8.684;2023-04-29T05:08:59;99154.66;;;11.27;100.00
41202;BME280;26936;50.524;8.684;2023-04-29T05:11:25;99153.41;;;11.28;100.00
41202;BME280;26936;50.524;8.684;2023-04-29T05:13:50;99154.66;;;11.27;100.00
41202;BME280;26936;50.524;8.684;2023-04-29T05:16:15;99152.00;;;11.24;100.00
41202;BME280;26936;50.524;8.684;2023-04-29T05:18:42;99156.38;;;11.25;100.00
41202;BME280;26936;50.524;8.684;2023-04-29T05:21:09;99152.75;;;11.24;100.00
41202;BME280;26936;50.524;8.684;2023-04-29T05:23:34;99157.16;;;11.25;100.00
41202;BME280;26936;50.524;8.684;2023-04-29T05:26:00;99156.69;;;11.27;100.00
41202;BME280;26936;50.524;8.684;2023-04-29T05:28:25;99158.69;;;11.17;100.00
41202;BME280;26936;50.524;8.684;2023-04-29T05:30:50;99165.41;;;11.20;100.00
41202;BME280;26936;50.524;8.684;2023-04-29T05:33:16;99166.69;;;11.19;100.00
41202;BME280;26936;50.524;8.684;2023-04-29T05:35:41;99167.16;;;11.17;100.00
41202;BME280;26936;50.524;8.684;2023-04-29T05:38:06;99168.38;;;11.16;100.00
41202;BME280;26936;50.524;8.684;2023-04-29T05:40:32;99178.88;;;11.16;100.00
41202;BME280;26936;50.524;8.684;2023-04-29T05:42:57;99178.28;;;11.21;100.00
41202;BME280;26936;50.524;8.684;2023-04-29T05:45:22;99180.44;;;11.17;100.00
41202;BME280;26936;50.524;8.684;2023-04-29T05:47:48;99186.03;;;11.08;100.00
41202;BME280;26936;50.524;8.684;2023-04-29T05:50:13;99191.81;;;11.04;100.00
41202;BME280;26936;50.524;8.684;2023-04-29T05:52:39;99189.75;;;11.05;100.00
41202;BME280;26936;50.524;8.684;2023-04-29T05:55:04;99200.75;;;11.12;100.00
41202;BME280;26936;50.524;8.684;2023-04-29T05:57:30;99199.25;;;11.20;100.00
41202;BME280;26936;50.524;8.684;2023-04-29T05:59:56;99203.81;;;11.26;100.00
41202;BME280;26936;50.524;8.684;2023-04-29T06:02:24;99207.44;;;11.27;100.00
41202;BME280;26936;50.524;8.684;2023-04-29T06:04:49;99208.06;;;11.31;100.00
41202;BME280;26936;50.524;8.684;2023-04-29T06:07:15;99211.53;;;11.35;100.00
41202;BME280;26936;50.524;8.684;2023-04-29T06:09:41;99209.19;;;11.33;100.00
41202;BME280;26936;50.524;8.684;2023-04-29T06:12:06;99210.75;;;11.34;100.00
41202;BME280;26936;50.524;8.684;2023-04-29T06:14:32;99212.66;;;11.37;100.00
41202;BME280;26936;50.524;8.684;2023-04-29T06:16:57;99213.97;;;11.45;100.00
41202;BME280;26936;50.524;8.684;2023-04-29T06:19:22;99215.31;;;11.41;100.00
41202;BME280;26936;50.524;8.684;2023-04-29T06:21:49;99216.44;;;11.43;100.00
41202;BME280;26936;50.524;8.684;2023-04-29T06:24:14;99226.47;;;11.44;100.00
41202;BME280;26936;50.524;8.684;2023-04-29T06:26:39;99226.81;;;11.46;100.00
41202;BME280;26936;50.524;8.684;2023-04-29T06:29:05;99228.50;;;11.44;100.00
41202;BME280;26936;50.524;8.684;2023-04-29T06:31:30;99236.94;;;11.35;100.00
41202;BME280;26936;50.524;8.684;2023-04-29T06:33:55;99235.38;;;11.34;100.00
41202;BME280;26936;50.524;8.684;2023-04-29T06:36:20;99251.16;;;11.31;100.00
41202;BME280;26936;50.524;8.684;2023-04-29T06:38:46;99250.88;;;11.38;100.00
41202;BME280;26936;50.524;8.684;2023-04-29T06:41:11;99252.44;;;11.39;100.00
41202;BME280;26936;50.524;8.684;2023-04-29T06:43:36;99245.13;;;11.42;100.00
41202;BME280;26936;50.524;8.684;2023-04-29T06:46:02;99253.88;;;11.44;100.00
41202;BME280;26936;50.524;8.684;2023-04-29T06:48:27;99246.69;;;11.43;100.00
41202;BME280;26936;50.524;8.684;2023-04-29T06:50:54;99258.91;;;11.49;100.00
41202;BME280;26936;50.524;8.684;2023-04-29T06:53:20;99260.97;;;11.48;100.00
41202;BME280;26936;50.524;8.684;2023-04-29T06:55:46;99266.47;;;11.52;100.00
41202;BME280;26936;50.524;8.684;2023-04-29T06:58:12;99265.94;;;11.44;100.00
41202;BME280;26936;50.524;8.684;2023-04-29T07:00:38;99272.38;;;11.45;100.00
41202;BME280;26936;50.524;8.684;2023-04-29T07:03:03;99279.78;;;11.51;100.00
41202;BME280;26936;50.524;8.684;2023-04-29T07:05:28;99276.50;;;11.53;100.00
41202;BME280;26936;50.524;8.684;2023-04-29T07:07:54;99288.06;;;11.46;100.00
41202;BME280;26936;50.524;8.684;2023-04-29T07:10:19;99283.72;;;11.54;100.00
41202;BME280;26936;50.524;8.684;2023-04-29T07:12:44;99286.06;;;11.55;100.00
41202;BME280;26936;50.524;8.684;2023-04-29T07:15:10;99295.19;;;11.59;100.00
41202;BME280;26936;50.524;8.684;2023-04-29T07:17:35;99299.88;;;11.53;100.00
41202;BME280;26936;50.524;8.684;2023-04-29T07:20:00;99300.16;;;11.55;100.00
41202;BME280;26936;50.524;8.684;2023-04-29T07:22:26;99303.78;;;11.56;100.00
41202;BME280;26936;50.524;8.684;2023-04-29T07:24:54;99310.84;;;11.60;100.00
41202;BME280;26936;50.524;8.684;2023-04-29T07:27:21;99319.28;;;11.51;100.00
41202;BME280;26936;50.524;8.684;2023-04-29T07:29:46;99315.25;;;11.61;100.00
41202;BME280;26936;50.524;8.684;2023-04-29T07:32:12;99320.91;;;11.61;100.00
41202;BME280;26936;50.524;8.684;2023-04-29T07:34:37;99327.22;;;11.65;100.00
41202;BME280;26936;50.524;8.684;2023-04-29T07:37:02;99331.47;;;11.70;100.00
41202;BME280;26936;50.524;8.684;2023-04-29T07:39:28;99332.78;;;11.78;100.00
41202;BME280;26936;50.524;8.684;2023-04-29T07:41:54;99337.63;;;11.77;100.00
41202;BME280;26936;50.524;8.684;2023-04-29T07:44:20;99334.53;;;11.84;100.00
41202;BME280;26936;50.524;8.684;2023-04-29T07:46:45;99341.75;;;11.85;100.00
41202;BME280;26936;50.524;8.684;2023-04-29T07:49:11;99338.13;;;11.85;100.00
41202;BME280;26936;50.524;8.684;2023-04-29T07:51:36;99349.28;;;11.88;100.00
41202;BME280;26936;50.524;8.684;2023-04-29T07:54:04;99347.41;;;11.85;100.00
41202;BME280;26936;50.524;8.684;2023-04-29T07:56:30;99351.47;;;11.84;100.00
41202;BME280;26936;50.524;8.684;2023-04-29T07:58:55;99360.13;;;11.68;100.00
41202;BME280;26936;50.524;8.684;2023-04-29T08:01:20;99360.88;;;11.60;100.00
41202;BME280;26936;50.524;8.684;2023-04-29T08:03:45;99350.91;;;11.68;100.00
41202;BME280;26936;50.524;8.684;2023-04-29T08:06:11;99357.91;;;11.63;100.00
41202;BME280;26936;50.524;8.684;2023-04-29T08:08:36;99362.41;;;11.61;100.00
41202;BME280;26936;50.524;8.684;2023-04-29T08:11:01;99357.69;;;11.58;100.00
41202;BME280;26936;50.524;8.684;2023-04-29T08:13:27;99366.13;;;11.70;100.00
41202;BME280;26936;50.524;8.684;2023-04-29T08:15:52;99370.66;;;11.68;100.00
41202;BME280;26936;50.524;8.684;2023-04-29T08:18:18;99366.44;;;11.72;100.00
41202;BME280;26936;50.524;8.684;2023-04-29T08:20:43;99367.94;;;11.86;100.00
41202;BME280;26936;50.524;8.684;2023-04-29T08:23:08;99363.50;;;12.06;100.00
41202;BME280;26936;50.524;8.684;2023-04-29T08:25:34;99371.72;;;12.22;100.00
41202;BME280;26936;50.524;8.684;2023-04-29T08:27:59;99375.06;;;12.30;100.00
41202;BME280;26936;50.524;8.684;2023-04-29T08:30:24;99369.31;;;12.52;100.00
41202;BME280;26936;50.524;8.684;2023-04-29T08:32:50;99373.59;;;12.65;100.00
41202;BME280;26936;50.524;8.684;2023-04-29T08:35:15;99386.16;;;12.73;100.00
41202;BME280;26936;50.524;8.684;2023-04-29T08:37:40;99379.91;;;12.87;100.00
41202;BME280;26936;50.524;8.684;2023-04-29T08:40:07;99381.41;;;13.19;100.00
41202;BME280;26936;50.524;8.684;2023-04-29T08:42:36;99382.16;;;13.74;97.38
41202;BME280;26936;50.524;8.684;2023-04-29T08:45:02;99389.44;;;14.16;96.36
41202;BME280;26936;50.524;8.684;2023-04-29T08:47:34;99381.38;;;14.33;93.61
41202;BME280;26936;50.524;8.684;2023-04-29T08:50:04;99389.94;;;14.56;92.17
41202;BME280;26936;50.524;8.684;2023-04-29T08:52:30;99387.25;;;15.09;87.92
41202;BME280;26936;50.524;8.684;2023-04-29T08:54:57;99397.16;;;15.14;87.36
41202;BME280;26936;50.524;8.684;2023-04-29T08:57:24;99391.44;;;15.61;83.64
41202;BME280;26936;50.524;8.684;2023-04-29T08:59:51;99395.88;;;16.35;81.29
41202;BME280;26936;50.524;8.684;2023-04-29T09:02:16;99392.56;;;16.85;78.38
41202;BME280;26936;50.524;8.684;2023-04-29T09:07:09;99392.03;;;17.87;73.20
41202;BME280;26936;50.524;8.684;2023-04-29T09:09:38;99385.91;;;18.51;68.73
41202;BME280;26936;50.524;8.684;2023-04-29T09:12:04;99385.22;;;18.30;68.92
41202;BME280;26936;50.524;8.684;2023-04-29T09:14:30;99383.91;;;18.31;69.72
41202;BME280;26936;50.524;8.684;2023-04-29T09:16:58;99382.19;;;17.88;67.85
41202;BME280;26936;50.524;8.684;2023-04-29T09:19:34;99389.00;;;17.71;68.61
41202;BME280;26936;50.524;8.684;2023-04-29T09:22:01;99385.91;;;17.94;68.38
41202;BME280;26936;50.524;8.684;2023-04-29T09:24:28;99390.75;;;17.88;69.38
41202;BME280;26936;50.524;8.684;2023-04-29T09:26:53;99392.25;;;17.84;68.72
41202;BME280;26936;50.524;8.684;2023-04-29T09:29:19;99392.53;;;17.60;71.52
41202;BME280;26936;50.524;8.684;2023-04-29T09:31:45;99391.97;;;17.56;71.00
41202;BME280;26936;50.524;8.684;2023-04-29T09:34:11;99396.78;;;17.30;72.49
41202;BME280;26936;50.524;8.684;2023-04-29T09:39:20;99412.03;;;16.58;74.50
41202;BME280;26936;50.524;8.684;2023-04-29T09:44:15;99411.25;;;17.67;72.44
41202;BME280;26936;50.524;8.684;2023-04-29T09:46:40;99405.91;;;18.87;70.44
41202;BME280;26936;50.524;8.684;2023-04-29T09:49:21;99408.66;;;19.19;65.99
41202;BME280;26936;50.524;8.684;2023-04-29T09:51:57;99403.81;;;18.51;64.46
41202;BME280;26936;50.524;8.684;2023-04-29T09:54:24;99414.16;;;18.23;67.83
41202;BME280;26936;50.524;8.684;2023-04-29T09:56:51;99417.75;;;17.93;66.80
41202;BME280;26936;50.524;8.684;2023-04-29T09:59:18;99419.34;;;17.33;69.31
41202;BME280;26936;50.524;8.684;2023-04-29T10:01:46;99416.28;;;16.82;70.57
41202;BME280;26936;50.524;8.684;2023-04-29T10:04:14;99426.34;;;16.63;72.35
41202;BME280;26936;50.524;8.684;2023-04-29T10:06:40;99435.19;;;16.07;73.22
41202;BME280;26936;50.524;8.684;2023-04-29T10:09:07;99431.81;;;15.79;74.15
41202;BME280;26936;50.524;8.684;2023-04-29T10:11:33;99436.28;;;15.71;75.49
41202;BME280;26936;50.524;8.684;2023-04-29T10:14:02;99444.56;;;15.46;75.88
41202;BME280;26936;50.524;8.684;2023-04-29T10:16:30;99444.47;;;15.08;77.95
41202;BME280;26936;50.524;8.684;2023-04-29T10:18:59;99435.28;;;14.89;78.27
41202;BME280;26936;50.524;8.684;2023-04-29T10:21:28;99442.53;;;14.90;78.28
41202;BME280;26936;50.524;8.684;2023-04-29T10:23:58;99445.09;;;14.79;78.57
41202;BME280;26936;50.524;8.684;2023-04-29T10:26:27;99437.59;;;14.67;80.57
41202;BME280;26936;50.524;8.684;2023-04-29T10:29:01;99443.91;;;14.62;80.66
41202;BME280;26936;50.524;8.684;2023-04-29T10:31:30;99446.47;;;14.60;81.75
41202;BME280;26936;50.524;8.684;2023-04-29T10:33:56;99446.41;;;14.69;82.05
41202;BME280;26936;50.524;8.684;2023-04-29T10:36:24;99458.63;;;14.51;84.02
41202;BME280;26936;50.524;8.684;2023-04-29T10:38:53;99453.16;;;14.39;84.39
41202;BME280;26936;50.524;8.684;2023-04-29T10:41:30;99455.47;;;14.49;84.75
41202;BME280;26936;50.524;8.684;2023-04-29T10:43:58;99446.63;;;14.56;84.32
41202;BME280;26936;50.524;8.684;2023-04-29T10:46:24;99452.31;;;14.56;83.82
41202;BME280;26936;50.524;8.684;2023-04-29T10:48:59;99455.56;;;14.64;83.27
41202;BME280;26936;50.524;8.684;2023-04-29T10:51:30;99448.56;;;14.41;84.93
41202;BME280;26936;50.524;8.684;2023-04-29T10:54:02;99458.47;;;14.46;83.27
41202;BME280;26936;50.524;8.684;2023-04-29T10:59:09;99450.34;;;14.21;83.88
41202;BME280;26936;50.524;8.684;2023-04-29T11:01:48;99458.84;;;14.30;84.21
41202;BME280;26936;50.524;8.684;2023-04-29T11:04:15;99461.06;;;14.26;84.43
41202;BME280;26936;50.524;8.684;2023-04-29T11:06:44;99459.78;;;14.27;84.42
41202;BME280;26936;50.524;8.684;2023-04-29T11:11:43;99466.09;;;14.13;84.46
41202;BME280;26936;50.524;8.684;2023-04-29T11:14:10;99471.56;;;14.16;84.51
41202;BME280;26936;50.524;8.684;2023-04-29T11:16:36;99467.50;;;14.17;84.71
41202;BME280;26936;50.524;8.684;2023-04-29T11:19:08;99469.09;;;14.00;86.81
41202;BME280;26936;50.524;8.684;2023-04-29T11:21:35;99471.31;;;13.96;87.15
41202;BME280;26936;50.524;8.684;2023-04-29T11:24:02;99469.88;;;14.01;87.03
41202;BME280;26936;50.524;8.684;2023-04-29T11:26:28;99474.59;;;14.04;88.43
41202;BME280;26936;50.524;8.684;2023-04-29T11:28:53;99477.22;;;14.16;87.16
41202;BME280;26936;50.524;8.684;2023-04-29T11:31:18;99463.53;;;14.33;87.03
41202;BME280;26936;50.524;8.684;2023-04-29T11:33:45;99476.69;;;14.54;85.82
41202;BME280;26936;50.524;8.684;2023-04-29T11:36:10;99478.69;;;14.71;85.23
41202;BME280;26936;50.524;8.684;2023-04-29T11:38:38;99476.47;;;14.75;84.23
41202;BME280;26936;50.524;8.684;2023-04-29T11:41:04;99478.25;;;14.96;82.57
41202;BME280;26936;50.524;8.684;2023-04-29T11:43:29;99479.34;;;14.99;80.82
41202;BME280;26936;50.524;8.684;2023-04-29T11:45:54;99480.44;;;15.02;81.93
41202;BME280;26936;50.524;8.684;2023-04-29T11:48:24;99484.78;;;15.35;80.80
41202;BME280;26936;50.524;8.684;2023-04-29T11:50:56;99488.03;;;15.52;77.17
41202;BME280;26936;50.524;8.684;2023-04-29T11:53:23;99485.72;;;15.65;75.40
41202;BME280;26936;50.524;8.684;2023-04-29T11:55:49;99496.31;;;15.64;76.79
41202;BME280;26936;50.524;8.684;2023-04-29T11:58:14;99490.38;;;15.77;75.98
41202;BME280;26936;50.524;8.684;2023-04-29T12:00:40;99487.72;;;15.73;75.78
41202;BME280;26936;50.524;8.684;2023-04-29T12:03:12;99490.56;;;15.73;77.55
41202;BME280;26936;50.524;8.684;2023-04-29T12:05:37;99491.06;;;15.86;76.37
41202;BME280;26936;50.524;8.684;2023-04-29T12:08:03;99499.00;;;15.82;75.99
41202;BME280;26936;50.524;8.684;2023-04-29T12:10:31;99493.28;;;15.68;75.36
41202;BME280;26936;50.524;8.684;2023-04-29T12:12:56;99496.94;;;15.45;76.72
41202;BME280;26936;50.524;8.684;2023-04-29T12:15:22;99498.69;;;15.33;76.98
41202;BME280;26936;50.524;8.684;2023-04-29T12:17:48;99492.59;;;15.26;78.54
41202;BME280;26936;50.524;8.684;2023-04-29T12:20:13;99489.72;;;15.35;77.55
41202;BME280;26936;50.524;8.684;2023-04-29T12:22:40;99498.53;;;15.37;77.81
41202;BME280;26936;50.524;8.684;2023-04-29T12:25:08;99500.13;;;15.29;77.95
41202;BME280;26936;50.524;8.684;2023-04-29T12:27:34;99491.69;;;15.20;78.15
41202;BME280;26936;50.524;8.684;2023-04-29T12:30:01;99500.53;;;15.13;77.38
41202;BME280;26936;50.524;8.684;2023-04-29T12:32:26;99500.91;;;15.06;78.36
41202;BME280;26936;50.524;8.684;2023-04-29T12:34:51;99496.63;;;15.10;79.59
41202;BME280;26936;50.524;8.684;2023-04-29T12:37:17;99512.28;;;14.96;78.53
41202;BME280;26936;50.524;8.684;2023-04-29T12:39:42;99511.50;;;14.96;78.59
41202;BME280;26936;50.524;8.684;2023-04-29T12:42:14;99509.28;;;15.00;78.30
41202;BME280;26936;50.524;8.684;2023-04-29T12:44:40;99506.34;;;14.85;79.35
41202;BME280;26936;50.524;8.684;2023-04-29T12:47:12;99509.94;;;14.95;78.80
41202;BME280;26936;50.524;8.684;2023-04-29T12:49:44;99509.13;;;14.94;79.10
41202;BME280;26936;50.524;8.684;2023-04-29T12:52:10;99515.50;;;14.80;79.72
41202;BME280;26936;50.524;8.684;2023-04-29T12:54:37;99521.50;;;14.73;79.86
41202;BME280;26936;50.524;8.684;2023-04-29T12:57:05;99510.47;;;14.75;79.53
41202;BME280;26936;50.524;8.684;2023-04-29T12:59:30;99516.47;;;14.68;80.63
41202;BME280;26936;50.524;8.684;2023-04-29T13:01:56;99510.41;;;14.52;80.96
41202;BME280;26936;50.524;8.684;2023-04-29T13:04:21;99526.94;;;14.53;81.30
41202;BME280;26936;50.524;8.684;2023-04-29T13:06:46;99523.94;;;14.48;81.90
41202;BME280;26936;50.524;8.684;2023-04-29T13:09:11;99522.72;;;14.31;82.02
41202;BME280;26936;50.524;8.684;2023-04-29T13:11:37;99521.59;;;14.37;82.67